Time;durP1;ratioP1;P1;durP2;ratioP2;P2;SDS_P1;SDS_P2;PMS_P1;PMS_P2;Temp;Humidity;BMP_temperature;BMP_pressure;BME280_temperature;BME280_humidity;BME280_pressure;Samples;Min_cycle;Max_cycle;Signal;HPM_P1;HPM_P2
2022/11/17 00:06:03;;;;;;;7.13;2.08;;;;;;;9.39;100.00;98588.72;5114976;28;20038;-88
2022/11/17 00:15:36;;;;;;;5.28;1.85;;;;;;;9.49;100.00;98571.69;5114561;28;20114;-88
2022/11/17 00:21:31;;;;;;;6.72;2.40;;;;;;;9.48;100.00;98559.25;5114923;28;20047;-88
2022/11/17 00:51:27;;;;;;;3.75;1.75;;;;;;;9.44;100.00;98498.59;5119409;27;20043;-89
2022/11/17 01:17:43;;;;;;;3.78;1.40;;;;;;;9.61;100.00;98442.34;5031773;28;20052;-87
2022/11/17 01:23:30;;;;;;;3.78;0.90;;;;;;;9.64;100.00;98452.63;5031567;28;20088;-88
2022/11/17 01:26:04;;;;;;;2.30;1.20;;;;;;;9.68;100.00;98455.59;5084724;28;20039;-87
2022/11/17 01:28:30;;;;;;;4.70;0.98;;;;;;;9.71;100.00;98446.94;5114594;28;20028;-88
2022/11/17 01:31:02;;;;;;;1.20;0.80;;;;;;;9.74;100.00;98456.44;5112858;28;20036;-87
2022/11/17 01:33:29;;;;;;;6.50;1.30;;;;;;;9.78;100.00;98462.94;5114533;28;20111;-87
2022/11/17 01:35:54;;;;;;;2.25;0.85;;;;;;;9.77;100.00;98451.31;5096102;28;20040;-87
2022/11/17 01:38:20;;;;;;;4.10;1.10;;;;;;;9.77;100.00;98439.66;5079140;28;20445;-88
2022/11/17 01:40:45;;;;;;;2.23;0.80;;;;;;;9.76;100.00;98417.19;5078583;28;20050;-87
2022/11/17 01:43:11;;;;;;;4.63;1.40;;;;;;;9.84;100.00;98441.00;5095384;28;20044;-87
2022/11/17 01:46:17;;;;;;;3.90;1.20;;;;;;;9.85;100.00;98447.25;5112456;28;20525;-87
2022/11/17 01:48:44;;;;;;;2.38;0.95;;;;;;;9.79;100.00;98446.44;5114204;28;20043;-87
2022/11/17 01:51:13;;;;;;;2.50;0.90;;;;;;;9.79;100.00;98445.63;5114491;28;20038;-87
2022/11/17 02:00:48;;;;;;;3.25;1.08;;;;;;;9.83;100.00;98419.59;5097666;28;20396;-88
2022/11/17 02:03:13;;;;;;;2.70;1.13;;;;;;;9.84;100.00;98397.66;5061860;28;20040;-88
2022/11/17 02:05:59;;;;;;;1.83;1.15;;;;;;;9.86;100.00;98431.81;5062760;28;20127;-87
2022/11/17 02:08:29;;;;;;;2.90;1.30;;;;;;;9.86;100.00;98448.06;5078559;28;20032;-87
2022/11/17 02:10:55;;;;;;;1.80;1.00;;;;;;;9.87;100.00;98436.16;5096880;28;20549;-87
2022/11/17 02:13:21;;;;;;;3.85;0.82;;;;;;;9.88;100.00;98437.78;5096965;28;20040;-87
2022/11/17 02:15:47;;;;;;;2.58;1.05;;;;;;;9.89;100.00;98423.97;5095694;28;20048;-87
2022/11/17 02:18:15;;;;;;;3.87;1.10;;;;;;;9.89;100.00;98413.13;5096529;28;20035;-87
2022/11/17 02:21:10;;;;;;;3.90;1.13;;;;;;;9.90;100.00;98403.91;5078545;28;20051;-87
2022/11/17 02:27:25;;;;;;;3.92;0.65;;;;;;;9.86;100.00;98383.84;5015640;28;20041;-87
2022/11/17 02:40:34;;;;;;;1.67;0.47;;;;;;;9.90;100.00;98357.06;5015460;28;20045;-87
2022/11/17 02:46:46;;;;;;;1.17;0.40;;;;;;;9.86;100.00;98345.13;5015584;28;20410;-87
2022/11/17 02:52:25;;;;;;;2.22;0.40;;;;;;;9.80;100.00;98336.19;4995420;28;20108;-87
2022/11/17 02:59:34;;;;;;;1.17;0.45;;;;;;;9.80;100.00;98330.78;5010708;28;20430;-86
2022/11/17 03:05:42;;;;;;;1.63;0.60;;;;;;;9.72;100.00;98324.03;5014112;28;20044;-87
2022/11/17 03:18:29;;;;;;;3.70;0.40;;;;;;;9.40;100.00;98298.03;5053974;28;20090;-87
2022/11/17 03:24:22;;;;;;;1.05;0.30;;;;;;;9.27;100.00;98298.56;5093713;28;20038;-87
2022/11/17 03:26:56;;;;;;;0.90;0.38;;;;;;;9.26;100.00;98281.53;5093368;28;20039;-87
2022/11/17 03:29:25;;;;;;;1.35;0.40;;;;;;;9.27;100.00;98293.97;5093667;28;20048;-87
2022/11/17 03:31:57;;;;;;;1.42;0.30;;;;;;;9.28;100.00;98287.47;5093114;28;20044;-87
2022/11/17 03:34:25;;;;;;;1.23;0.30;;;;;;;9.25;100.00;98273.69;5076408;28;20630;-87
2022/11/17 03:36:54;;;;;;;1.80;0.40;;;;;;;9.29;100.00;98280.97;5077066;28;20050;-87
2022/11/17 03:43:32;;;;;;;2.45;0.40;;;;;;;9.36;100.00;98274.47;5073470;28;20141;-87
2022/11/17 03:56:07;;;;;;;1.00;0.30;;;;;;;9.64;100.00;98270.41;5059026;28;20523;-87
2022/11/17 03:58:37;;;;;;;0.50;0.28;;;;;;;9.67;100.00;98253.66;5094399;28;20067;-86
2022/11/17 04:01:48;;;;;;;1.95;0.35;;;;;;;9.84;100.00;98256.03;5113279;28;20040;-87
2022/11/17 04:04:19;;;;;;;1.17;0.47;;;;;;;9.91;100.00;98237.59;5096475;28;20051;-86
2022/11/17 04:06:47;;;;;;;1.50;0.65;;;;;;;9.83;100.00;98222.75;5095620;28;20069;-87
2022/11/17 04:18:40;;;;;;;2.60;0.30;;;;;;;10.07;100.00;98245.69;5114937;28;20046;-87
2022/11/17 04:24:34;;;;;;;0.70;0.20;;;;;;;10.13;100.00;98225.63;5114525;28;20315;-86
2022/11/17 04:58:07;;;;;;;2.00;0.90;;;;;;;9.41;100.00;98193.31;5114418;27;20035;-88
2022/11/17 05:51:31;;;;;;;7.88;1.30;;;;;;;9.21;100.00;98259.88;5096470;28;20472;-87
2022/11/17 05:57:49;;;;;;;9.95;1.42;;;;;;;9.26;100.00;98272.59;5097325;28;20050;-87
2022/11/17 06:03:56;;;;;;;10.82;1.45;;;;;;;9.22;100.00;98276.91;5114085;28;20494;-87
2022/11/17 06:07:14;;;;;;;8.38;0.90;;;;;;;9.22;100.00;98268.81;5134227;27;20460;-87
2022/11/17 06:13:08;;;;;;;8.80;1.33;;;;;;;9.24;100.00;98285.56;5117468;28;20169;-87
2022/11/17 06:15:36;;;;;;;7.50;0.82;;;;;;;9.19;100.00;98280.97;5132640;27;20043;-87
2022/11/17 06:21:27;;;;;;;10.13;1.40;;;;;;;9.19;100.00;98291.00;5034695;28;20043;-87
2022/11/17 06:27:28;;;;;;;;;;;;;;;;;;;;;
2022/11/17 06:30:02;;;;;;;10.98;1.00;;;;;;;9.05;100.00;98305.03;5034935;28;20049;-86
2022/11/17 06:32:42;;;;;;;6.05;0.90;;;;;;;9.03;100.00;98309.88;5078259;28;20041;-84
2022/11/17 06:35:11;;;;;;;6.07;0.70;;;;;;;8.97;100.00;98310.97;5117318;28;20090;-84
2022/11/17 06:37:39;;;;;;;6.32;0.95;;;;;;;8.83;100.00;98309.84;5116430;28;20130;-85
2022/11/17 06:40:12;;;;;;;8.13;0.90;;;;;;;8.83;100.00;98312.53;5115517;28;20042;-85
2022/11/17 06:45:42;;;;;;;3.38;0.40;;;;;;;8.73;100.00;98310.63;5117036;28;20065;-84
2022/11/17 06:48:16;;;;;;;6.20;0.63;;;;;;;8.66;100.00;98308.16;5118352;27;20043;-84
2022/11/17 06:50:47;;;;;;;4.20;0.68;;;;;;;8.68;100.00;98313.31;5132427;27;20027;-84
2022/11/17 06:53:12;;;;;;;9.75;0.70;;;;;;;8.65;100.00;98320.06;5132093;27;20047;-84
2022/11/17 06:55:42;;;;;;;7.60;0.70;;;;;;;8.65;100.00;98324.66;5132338;27;20092;-84
2022/11/17 06:58:12;;;;;;;6.80;0.60;;;;;;;8.68;100.00;98321.41;5115502;28;20039;-84
2022/11/17 07:00:37;;;;;;;8.90;0.93;;;;;;;8.64;100.00;98334.66;5131441;27;20044;-84
2022/11/17 07:03:17;;;;;;;9.70;1.10;;;;;;;8.58;100.00;98316.78;5112729;28;20473;-84
2022/11/17 07:05:45;;;;;;;4.38;0.60;;;;;;;8.53;100.00;98314.88;5114502;28;20058;-85
2022/11/17 07:08:13;;;;;;;5.22;0.60;;;;;;;8.58;100.00;98339.22;5097484;28;20056;-84
2022/11/17 07:10:38;;;;;;;4.85;0.70;;;;;;;8.52;100.00;98334.03;5114407;28;20051;-85
2022/11/17 07:13:08;;;;;;;4.43;0.53;;;;;;;8.54;100.00;98337.31;5114059;28;20027;-85
2022/11/17 07:15:42;;;;;;;5.30;0.60;;;;;;;8.56;100.00;98351.38;5131667;27;20043;-85
2022/11/17 07:18:07;;;;;;;6.32;1.00;;;;;;;8.49;100.00;98346.22;5131664;27;20130;-85
2022/11/17 07:20:33;;;;;;;7.90;0.60;;;;;;;8.50;100.00;98355.94;5113901;28;20420;-84
2022/11/17 07:23:03;;;;;;;6.63;0.70;;;;;;;8.47;100.00;98348.34;5115299;28;20074;-84
2022/11/17 07:25:28;;;;;;;3.75;0.40;;;;;;;8.48;100.00;98351.88;5113720;28;20061;-85
2022/11/17 07:27:58;;;;;;;4.50;0.50;;;;;;;8.47;100.00;98359.16;5114106;28;20507;-84
2022/11/17 07:30:27;;;;;;;5.65;0.68;;;;;;;8.44;100.00;98354.28;5114914;28;20445;-84
2022/11/17 07:33:01;;;;;;;3.53;0.80;;;;;;;8.40;100.00;98353.13;5115222;27;20041;-84
2022/11/17 07:35:34;;;;;;;3.42;0.60;;;;;;;8.42;100.00;98351.81;5115956;28;20066;-84
2022/11/17 07:38:02;;;;;;;4.03;0.50;;;;;;;8.44;100.00;98359.69;5131685;27;20073;-84
2022/11/17 07:40:30;;;;;;;7.20;0.85;;;;;;;8.40;100.00;98364.78;5130855;27;20040;-84
2022/11/17 07:43:01;;;;;;;3.25;0.60;;;;;;;8.46;100.00;98384.56;5131331;27;20464;-84
2022/11/17 07:45:29;;;;;;;6.47;0.70;;;;;;;8.45;100.00;98361.31;5115205;28;20475;-84
2022/11/17 07:47:56;;;;;;;4.07;0.50;;;;;;;8.39;100.00;98373.16;5114943;28;20044;-84
2022/11/17 07:50:25;;;;;;;4.15;0.40;;;;;;;8.43;100.00;98385.06;5130708;27;20027;-84
2022/11/17 07:52:52;;;;;;;5.60;0.60;;;;;;;8.40;100.00;98380.16;5130634;27;20043;-84
2022/11/17 07:55:25;;;;;;;4.15;0.70;;;;;;;8.40;100.00;98385.56;5114578;28;20499;-84
2022/11/17 07:58:07;;;;;;;3.60;0.40;;;;;;;8.43;100.00;98390.47;5131058;27;20072;-84
2022/11/17 08:00:33;;;;;;;5.88;0.50;;;;;;;8.40;100.00;98397.22;5130636;27;20054;-84
2022/11/17 08:03:08;;;;;;;4.03;0.63;;;;;;;8.37;100.00;98391.50;5113436;28;20040;-84
2022/11/17 08:05:39;;;;;;;4.05;0.50;;;;;;;8.35;100.00;98389.06;5130598;27;20480;-83
2022/11/17 08:08:08;;;;;;;5.50;0.68;;;;;;;8.33;100.00;98407.44;5131020;27;20036;-84
2022/11/17 08:10:36;;;;;;;4.65;0.63;;;;;;;8.35;100.00;98407.97;5114565;28;20096;-84
2022/11/17 08:13:02;;;;;;;7.22;0.70;;;;;;;8.36;100.00;98411.50;5131750;27;20384;-84
2022/11/17 08:15:28;;;;;;;3.35;0.50;;;;;;;8.32;100.00;98424.69;5113621;28;20032;-83
2022/11/17 08:17:55;;;;;;;5.72;0.75;;;;;;;8.31;100.00;98416.84;5114550;28;20035;-84
2022/11/17 08:20:22;;;;;;;4.40;0.50;;;;;;;8.35;100.00;98428.78;5113683;28;20085;-85
2022/11/17 08:22:52;;;;;;;4.45;0.80;;;;;;;8.28;100.00;98428.19;5130203;27;20070;-84
2022/11/17 08:25:46;;;;;;;5.50;1.02;;;;;;;8.36;100.00;98436.63;5131378;27;20028;-84
2022/11/17 08:28:12;;;;;;;3.17;0.60;;;;;;;8.26;100.00;98426.53;5112497;28;20035;-83
2022/11/17 08:30:40;;;;;;;2.57;0.43;;;;;;;8.30;100.00;98429.56;5113383;28;20046;-84
2022/11/17 08:33:16;;;;;;;3.65;0.45;;;;;;;8.23;100.00;98424.38;5112952;28;20039;-84
2022/11/17 08:35:54;;;;;;;4.22;0.43;;;;;;;8.20;100.00;98426.78;5114052;28;20036;-85
2022/11/17 08:38:27;;;;;;;4.40;0.50;;;;;;;8.15;100.00;98421.34;5113210;28;20537;-84
2022/11/17 08:40:59;;;;;;;2.60;0.40;;;;;;;8.23;100.00;98439.78;5130440;27;20039;-84
2022/11/17 08:43:29;;;;;;;4.75;0.80;;;;;;;8.17;100.00;98424.59;5113230;28;20046;-84
2022/11/17 08:45:55;;;;;;;2.65;0.50;;;;;;;8.13;100.00;98435.09;5114700;28;20118;-84
2022/11/17 08:48:31;;;;;;;;;;;;;;;;;;;;;
2022/11/17 08:51:06;;;;;;;3.45;0.50;;;;;;;8.15;100.00;98435.66;5115186;28;20031;-86
2022/11/17 08:53:42;;;;;;;0.90;0.40;;;;;;;8.13;100.00;98439.69;5130127;27;20032;-86
2022/11/17 08:56:20;;;;;;;7.78;0.60;;;;;;;8.12;100.00;98446.16;5112893;28;20039;-86
2022/11/17 08:58:45;;;;;;;3.10;0.60;;;;;;;8.11;100.00;98445.34;5130388;27;20115;-86
2022/11/17 09:01:18;;;;;;;5.38;0.70;;;;;;;8.15;100.00;98449.19;5112591;28;20086;-86
2022/11/17 09:03:56;;;;;;;;;;;;;;;;;;;;;
2022/11/17 09:06:22;;;;;;;5.53;0.98;;;;;;;8.12;100.00;98457.78;5113978;28;20043;-86
2022/11/17 09:08:50;;;;;;;5.05;0.70;;;;;;;8.16;100.00;98468.88;5112521;28;20062;-87
2022/11/17 09:11:28;;;;;;;;;;;;;;;;;;;;;
2022/11/17 09:13:56;;;;;;;4.60;0.50;;;;;;;8.12;100.00;98467.75;5114806;28;20444;-87
2022/11/17 09:16:24;;;;;;;5.53;0.90;;;;;;;8.21;100.00;98480.56;5095842;28;20039;-87
2022/11/17 09:18:56;;;;;;;6.65;0.68;;;;;;;8.23;100.00;98469.50;5129934;28;20129;-86
2022/11/17 09:21:21;;;;;;;4.28;0.95;;;;;;;8.18;100.00;98483.78;5130764;28;20043;-87
2022/11/17 09:23:59;;;;;;;;;;;;;;;;;;;;;
2022/11/17 09:26:27;;;;;;;3.22;0.93;;;;;;;8.17;100.00;98473.22;5113480;28;20038;-87
2022/11/17 09:29:19;;;;;;;6.95;1.17;;;;;;;8.28;100.00;98484.91;5112255;28;20451;-88
2022/11/17 09:31:44;;;;;;;2.42;0.55;;;;;;;8.25;100.00;98476.28;5112304;28;20135;-88
2022/11/17 09:34:10;;;;;;;5.27;0.70;;;;;;;8.25;100.00;98491.66;5112129;28;20067;-87
2022/11/17 09:36:36;;;;;;;3.30;0.60;;;;;;;8.26;100.00;98495.97;5129634;28;20028;-86
2022/11/17 09:39:14;;;;;;;;;;;;;;;;;;;;;
2022/11/17 09:41:50;;;;;;;2.35;0.60;;;;;;;8.34;100.00;98489.28;5114061;28;20401;-87
2022/11/17 09:44:23;;;;;;;2.25;0.60;;;;;;;8.47;100.00;98513.19;5130666;28;20031;-86
2022/11/17 09:47:02;;;;;;;2.75;0.60;;;;;;;8.49;100.00;98494.00;5112696;28;20032;-88
2022/11/17 09:49:43;;;;;;;3.50;0.97;;;;;;;8.52;100.00;98501.59;5112772;28;20057;-87
2022/11/17 09:52:27;;;;;;;4.10;0.82;;;;;;;8.52;100.00;98501.59;5112534;28;20040;-88
2022/11/17 09:55:00;;;;;;;9.75;0.93;;;;;;;8.52;100.00;98501.59;5129235;28;20036;-86
2022/11/17 09:57:43;;;;;;;;;;;;;;;;;;;;;
2022/11/17 10:00:16;;;;;;;3.20;0.50;;;;;;;8.54;100.00;98513.78;5114277;28;20031;-86
2022/11/17 10:02:50;;;;;;;3.53;0.52;;;;;;;8.54;100.00;98521.91;5129716;28;20383;-87
2022/11/17 10:05:25;;;;;;;5.95;0.50;;;;;;;8.60;100.00;98522.75;5113736;28;20120;-86
2022/11/17 10:07:52;;;;;;;6.00;0.75;;;;;;;8.64;100.00;98523.06;5112721;28;20437;-87
2022/11/17 10:10:26;;;;;;;5.78;0.70;;;;;;;8.63;100.00;98534.94;5111818;28;20047;-87
2022/11/17 10:13:00;;;;;;;6.45;1.00;;;;;;;8.65;100.00;98522.81;5114460;28;20035;-85
2022/11/17 10:15:59;;;;;;;;;;;;;;;;;;;;;
2022/11/17 10:18:33;;;;;;;2.60;0.40;;;;;;;8.70;100.00;98539.06;5117418;28;20040;-85
2022/11/17 10:21:05;;;;;;;7.55;0.80;;;;;;;8.78;100.00;98544.00;5133339;27;20096;-87
2022/11/17 10:23:49;;;;;;;4.93;0.80;;;;;;;8.92;100.00;98527.31;5117655;28;20364;-85
2022/11/17 10:26:27;;;;;;;2.35;0.60;;;;;;;8.95;100.00;98535.69;5132753;27;20077;-86
2022/11/17 10:29:10;;;;;;;6.10;0.57;;;;;;;9.08;100.00;98536.28;5133775;27;20063;-86
2022/11/17 10:31:41;;;;;;;3.05;0.88;;;;;;;9.20;100.00;98550.44;5117385;28;20471;-86
2022/11/17 10:34:09;;;;;;;3.85;0.40;;;;;;;9.18;100.00;98558.00;5132953;27;20127;-86
2022/11/17 10:36:46;;;;;;;3.10;0.40;;;;;;;9.25;100.00;98552.38;5116876;28;20071;-86
2022/11/17 10:39:36;;;;;;;2.17;0.73;;;;;;;9.29;100.00;98575.13;5115866;28;20070;-86
2022/11/17 10:42:16;;;;;;;3.60;0.43;;;;;;;9.21;100.00;98562.06;5115190;28;20039;-86
2022/11/17 10:44:58;;;;;;;4.95;0.52;;;;;;;9.23;100.00;98563.44;5116476;28;20039;-86
2022/11/17 10:47:28;;;;;;;4.28;0.73;;;;;;;9.21;100.00;98572.91;5116197;28;20043;-86
2022/11/17 10:50:15;;;;;;;2.72;0.50;;;;;;;9.21;100.00;98578.31;5115006;28;20483;-86
2022/11/17 10:52:53;;;;;;;;;;;;;;;;;;;;;
2022/11/17 10:55:27;;;;;;;3.63;0.52;;;;;;;9.10;100.00;98580.97;5116853;28;20448;-86
2022/11/17 10:58:01;;;;;;;2.25;0.50;;;;;;;8.98;100.00;98571.44;5115184;28;20035;-86
2022/11/17 11:00:39;;;;;;;4.72;1.05;;;;;;;9.05;100.00;98574.69;5132732;27;20044;-86
2022/11/17 11:03:20;;;;;;;4.95;0.73;;;;;;;8.98;100.00;98591.16;5132384;27;20031;-86
2022/11/17 11:06:31;;;;;;;;;;;;;;;;;;;;;
2022/11/17 11:09:18;;;;;;;3.77;0.53;;;;;;;8.88;100.00;98591.91;5116414;28;20046;-84
2022/11/17 11:11:47;;;;;;;2.42;0.68;;;;;;;8.85;100.00;98576.19;5114567;28;20085;-85
2022/11/17 11:14:47;;;;;;;4.03;0.68;;;;;;;8.91;100.00;98594.09;5131657;27;20110;-85
2022/11/17 11:17:20;;;;;;;3.28;0.50;;;;;;;8.86;100.00;98588.66;5114808;28;20526;-85
2022/11/17 11:19:51;;;;;;;3.85;0.80;;;;;;;8.86;100.00;98588.66;5116626;27;20040;-86
2022/11/17 11:22:22;;;;;;;5.80;0.80;;;;;;;8.88;100.00;98602.72;5114663;28;20039;-86
2022/11/17 11:25:03;;;;;;;5.63;0.95;;;;;;;8.83;100.00;98591.88;5114514;28;20032;-87
2022/11/17 11:28:22;;;;;;;3.60;0.80;;;;;;;8.86;100.00;98596.75;5115269;28;20039;-87
2022/11/17 11:32:04;;;;;;;3.22;0.70;;;;;;;8.89;100.00;98619.78;5098665;28;20051;-86
2022/11/17 11:35:05;;;;;;;2.00;0.73;;;;;;;8.80;100.00;98614.03;4993292;28;20073;-87
2022/11/17 11:37:47;;;;;;;4.83;0.60;;;;;;;8.78;100.00;98611.59;5035856;28;20128;-88
2022/11/17 11:40:28;;;;;;;4.55;0.80;;;;;;;8.73;100.00;98610.72;5131661;27;20043;-88
2022/11/17 11:43:07;;;;;;;;;;;;;;;;;;;;;
2022/11/17 11:46:02;;;;;;;5.78;0.80;;;;;;;8.76;100.00;98621.03;5115761;28;20031;-88
2022/11/17 11:48:34;;;;;;;6.15;1.10;;;;;;;8.79;100.00;98620.50;5115018;28;20032;-87
2022/11/17 11:51:19;;;;;;;5.22;0.75;;;;;;;8.77;100.00;98619.94;5131263;27;20035;-87
2022/11/17 11:54:04;;;;;;;4.05;0.50;;;;;;;8.84;100.00;98623.22;5113819;28;20047;-87
2022/11/17 11:56:33;;;;;;;4.97;0.50;;;;;;;8.86;100.00;98622.97;5114374;28;20040;-89
2022/11/17 11:59:23;;;;;;;4.85;0.77;;;;;;;8.82;100.00;98641.63;5131197;27;20066;-87
2022/11/17 12:02:02;;;;;;;3.90;0.75;;;;;;;8.83;100.00;98642.41;5114253;28;20452;-89
2022/11/17 12:05:03;;;;;;;1.83;0.50;;;;;;;8.81;100.00;98637.25;5131139;27;20044;-88
2022/11/17 12:07:47;;;;;;;2.25;0.65;;;;;;;8.68;100.00;98630.41;5113438;28;20063;-89
2022/11/17 12:10:15;;;;;;;4.68;0.50;;;;;;;8.83;100.00;98632.44;5115138;28;20061;-88
2022/11/17 12:12:44;;;;;;;2.00;0.60;;;;;;;8.73;100.00;98622.34;5113725;28;20035;-88
2022/11/17 12:15:32;;;;;;;5.97;0.75;;;;;;;8.89;100.00;98636.81;5130526;27;20067;-88
2022/11/17 12:18:21;;;;;;;2.93;0.47;;;;;;;8.88;100.00;98637.06;5113861;28;20040;-88
2022/11/17 12:20:53;;;;;;;1.55;0.68;;;;;;;8.88;100.00;98645.97;5102624;28;20042;-92
2022/11/17 12:23:40;;;;;;;4.75;0.77;;;;;;;8.80;100.00;98643.78;5114436;28;20044;-89
2022/11/17 12:26:20;;;;;;;1.77;0.40;;;;;;;8.74;100.00;98645.59;5152355;22;20019;-91
2022/11/17 12:28:48;;;;;;;1.52;0.75;;;;;;;8.84;100.00;98652.97;5076177;28;20483;-90
2022/11/17 12:31:28;;;;;;;4.82;0.63;;;;;;;8.99;100.00;98643.34;5076151;28;20139;-88
2022/11/17 12:33:54;;;;;;;5.78;0.70;;;;;;;8.99;100.00;98662.28;5075761;28;20162;-88
2022/11/17 12:36:22;;;;;;;5.57;0.68;;;;;;;8.99;100.00;98667.69;5076141;28;20055;-89
2022/11/17 12:38:56;;;;;;;5.22;0.60;;;;;;;8.95;100.00;98665.50;5076290;28;20032;-88
2022/11/17 12:41:52;;;;;;;2.80;0.50;;;;;;;8.98;100.00;98657.97;5075472;28;20070;-88
2022/11/17 12:44:38;;;;;;;5.07;0.80;;;;;;;8.93;100.00;98669.53;5076074;28;20123;-87
2022/11/17 12:47:25;;;;;;;4.55;0.77;;;;;;;8.85;100.00;98665.44;5075693;28;20157;-88
2022/11/17 12:50:19;;;;;;;5.18;0.70;;;;;;;8.88;100.00;98666.81;5093793;28;20070;-88
2022/11/17 12:53:22;;;;;;;;;;;;;;;;;;;;;
2022/11/17 12:56:07;;;;;;;3.75;0.60;;;;;;;9.02;100.00;98675.28;5093693;28;20040;-87
2022/11/17 12:58:45;;;;;;;3.80;0.60;;;;;;;9.09;100.00;98673.19;5075334;28;20032;-87
2022/11/17 13:01:18;;;;;;;4.50;0.77;;;;;;;9.10;100.00;98666.72;5059113;28;20123;-86
2022/11/17 13:04:06;;;;;;;3.97;0.55;;;;;;;9.19;100.00;98672.47;5073181;28;20064;-87
2022/11/17 13:06:31;;;;;;;6.70;1.17;;;;;;;9.08;100.00;98666.16;5073482;28;20036;-87
2022/11/17 13:09:01;;;;;;;3.40;0.60;;;;;;;9.02;100.00;98675.28;5038946;28;20040;-88
2022/11/17 13:11:28;;;;;;;5.78;0.57;;;;;;;9.11;100.00;98671.06;5055099;28;20465;-88
2022/11/17 13:14:10;;;;;;;5.63;0.90;;;;;;;9.03;100.00;98685.06;5055208;28;20158;-88
2022/11/17 13:16:42;;;;;;;5.95;0.70;;;;;;;9.12;100.00;98662.69;5055133;28;20040;-87
2022/11/17 13:19:30;;;;;;;3.85;0.80;;;;;;;9.27;100.00;98685.50;5073038;28;20120;-87
2022/11/17 13:22:01;;;;;;;5.38;0.77;;;;;;;9.31;100.00;98675.78;5054747;28;20036;-87
2022/11/17 13:24:34;;;;;;;1.05;0.40;;;;;;;9.32;100.00;98688.25;5073132;28;20527;-87
2022/11/17 13:27:02;;;;;;;3.63;1.33;;;;;;;9.25;100.00;98684.94;5035571;28;20045;-88
2022/11/17 13:29:28;;;;;;;4.22;0.60;;;;;;;9.34;100.00;98686.09;5053142;28;20477;-88
2022/11/17 13:32:29;;;;;;;4.90;0.60;;;;;;;9.33;100.00;98724.25;5053135;28;20043;-87
2022/11/17 13:34:59;;;;;;;3.80;0.50;;;;;;;9.53;100.00;98697.31;4991678;28;20042;-87
2022/11/17 13:37:27;;;;;;;4.07;0.77;;;;;;;9.63;100.00;98705.50;5038321;28;20041;-87
2022/11/17 13:40:03;;;;;;;3.53;0.50;;;;;;;9.87;100.00;98707.81;5052558;28;20041;-87
2022/11/17 13:42:31;;;;;;;2.85;0.60;;;;;;;10.00;100.00;98703.81;5052098;28;20037;-87
2022/11/17 13:45:03;;;;;;;5.85;0.50;;;;;;;10.13;100.00;98722.28;5051562;28;20043;-87
2022/11/17 13:47:39;;;;;;;4.35;1.40;;;;;;;10.25;98.61;98699.56;5053446;28;20037;-87
2022/11/17 13:50:26;;;;;;;2.20;0.90;;;;;;;10.29;98.54;98706.91;5051658;28;20048;-87
2022/11/17 13:53:10;;;;;;;4.38;0.70;;;;;;;10.48;97.47;98707.28;5053653;28;20485;-87
2022/11/17 13:55:56;;;;;;;1.80;0.40;;;;;;;10.81;95.10;98704.34;5056046;28;20072;-87
2022/11/17 13:58:39;;;;;;;4.47;1.80;;;;;;;11.10;93.91;98709.25;5055700;28;20108;-87
2022/11/17 14:01:12;;;;;;;9.07;3.25;;;;;;;11.10;93.26;98722.81;5055633;28;20107;-87
2022/11/17 14:03:40;;;;;;;4.73;1.60;;;;;;;10.92;92.23;98705.16;5055359;28;20035;-87
2022/11/17 14:06:12;;;;;;;3.22;0.82;;;;;;;10.89;91.71;98703.81;5055918;28;20033;-87
2022/11/17 14:08:42;;;;;;;5.78;0.43;;;;;;;10.79;91.88;98718.19;5055605;28;20120;-87
2022/11/17 14:11:11;;;;;;;1.73;0.82;;;;;;;10.88;92.72;98723.91;5057187;28;20111;-87
2022/11/17 14:13:57;;;;;;;2.65;0.50;;;;;;;10.84;93.74;98709.25;5055428;28;20040;-87
2022/11/17 14:16:39;;;;;;;2.90;0.40;;;;;;;10.94;93.01;98732.84;5056810;28;20071;-86
2022/11/17 14:19:32;;;;;;;1.83;0.38;;;;;;;10.92;90.69;98721.44;5040041;28;20044;-87
2022/11/17 14:22:09;;;;;;;3.55;0.50;;;;;;;10.91;90.51;98728.78;5057870;28;20064;-87
2022/11/17 14:24:39;;;;;;;7.68;0.50;;;;;;;10.90;90.32;98726.34;5056721;28;20040;-88
2022/11/17 14:27:34;;;;;;;2.58;0.50;;;;;;;10.83;90.73;98727.41;5056089;28;20095;-87
2022/11/17 14:30:02;;;;;;;2.13;0.40;;;;;;;10.82;91.06;98727.66;5056450;28;20131;-88
2022/11/17 14:32:31;;;;;;;4.28;0.90;;;;;;;10.83;90.27;98730.09;5040874;28;20095;-87
2022/11/17 14:35:12;;;;;;;;;;;;;;;;;;;;;
2022/11/17 14:37:38;;;;;;;2.35;0.50;;;;;;;11.01;89.56;98733.38;5057414;28;20043;-88
2022/11/17 14:40:06;;;;;;;1.83;0.50;;;;;;;10.99;88.74;98733.66;5055772;28;20131;-87
2022/11/17 14:42:52;;;;;;;;;;;;;;;;;;;;;
2022/11/17 14:45:26;;;;;;;1.58;0.65;;;;;;;10.81;90.63;98740.41;5057288;28;20047;-87
2022/11/17 14:48:23;;;;;;;1.40;0.40;;;;;;;10.73;91.63;98743.66;5041051;28;20048;-88
2022/11/17 14:51:00;;;;;;;4.10;1.23;;;;;;;10.70;90.50;98760.47;5055776;28;20037;-87
2022/11/17 14:54:08;;;;;;;1.30;0.40;;;;;;;10.63;91.64;98762.59;5056772;28;20087;-88
2022/11/17 14:56:34;;;;;;;1.77;0.30;;;;;;;10.59;91.74;98766.94;5056092;28;20041;-88
2022/11/17 14:59:09;;;;;;;2.97;0.40;;;;;;;10.60;91.76;98773.97;5055399;28;20095;-87
2022/11/17 15:01:37;;;;;;;3.17;0.40;;;;;;;10.52;90.57;98773.41;5055135;28;20500;-87
2022/11/17 15:04:14;;;;;;;2.58;0.82;;;;;;;10.45;90.61;98764.75;5054364;28;20123;-87
2022/11/17 15:06:43;;;;;;;4.32;0.60;;;;;;;10.38;92.38;98761.47;5055907;28;20037;-87
2022/11/17 15:09:15;;;;;;;2.00;0.60;;;;;;;10.39;92.39;98781.25;5055203;28;20036;-88
2022/11/17 15:11:43;;;;;;;3.80;0.50;;;;;;;10.38;93.02;98787.72;5055634;28;20375;-87
2022/11/17 15:14:09;;;;;;;4.05;0.50;;;;;;;10.40;91.28;98785.59;5054412;28;20040;-87
2022/11/17 15:16:38;;;;;;;4.88;0.52;;;;;;;10.38;91.80;98783.13;5055196;28;20033;-86
2022/11/17 15:19:06;;;;;;;4.45;0.50;;;;;;;10.45;90.51;98797.28;5038651;28;20202;-87
2022/11/17 15:21:34;;;;;;;1.90;0.50;;;;;;;10.35;90.93;98776.34;5054612;28;20136;-88
2022/11/17 15:24:22;;;;;;;3.97;0.67;;;;;;;10.40;91.51;98810.00;5037976;28;20497;-87
2022/11/17 15:26:50;;;;;;;2.20;0.43;;;;;;;10.24;91.37;98790.09;5053944;28;20053;-88
2022/11/17 15:29:21;;;;;;;2.45;0.65;;;;;;;10.23;93.57;98793.88;5055447;28;20033;-87
2022/11/17 15:31:49;;;;;;;3.63;0.70;;;;;;;10.25;91.08;98797.94;5055549;28;20049;-87
2022/11/17 15:34:20;;;;;;;3.92;0.40;;;;;;;10.28;91.19;98796.63;5054802;28;20040;-88
2022/11/17 15:36:46;;;;;;;1.48;0.50;;;;;;;10.22;91.15;98800.38;5054520;28;20045;-88
2022/11/17 15:39:25;;;;;;;0.93;0.43;;;;;;;10.13;92.05;98794.66;5054874;28;20052;-88
2022/11/17 15:41:50;;;;;;;2.38;0.40;;;;;;;10.00;92.82;98801.34;5054700;28;20041;-88
2022/11/17 15:44:19;;;;;;;3.73;0.43;;;;;;;9.93;93.80;98803.47;5054178;28;20568;-87
2022/11/17 15:46:47;;;;;;;2.80;1.00;;;;;;;9.93;92.88;98798.84;5054477;28;20045;-87
2022/11/17 15:49:20;;;;;;;1.90;0.68;;;;;;;9.92;93.10;98818.06;5055446;28;20071;-87
2022/11/17 15:51:46;;;;;;;6.90;0.50;;;;;;;9.87;93.77;98820.75;5038659;28;20440;-88
2022/11/17 15:54:22;;;;;;;3.43;0.60;;;;;;;9.85;92.90;98815.59;5055018;28;20033;-88
2022/11/17 15:56:59;;;;;;;3.83;0.50;;;;;;;9.82;93.29;98821.53;5057959;28;20527;-87
2022/11/17 15:59:25;;;;;;;4.35;0.75;;;;;;;9.76;94.52;98828.00;5074013;28;20064;-87
2022/11/17 16:01:53;;;;;;;2.50;0.90;;;;;;;9.68;95.72;98836.59;5073307;28;20044;-87
2022/11/17 16:04:21;;;;;;;2.70;0.50;;;;;;;9.70;95.13;98834.44;5074014;28;20040;-87
2022/11/17 16:06:52;;;;;;;2.90;0.60;;;;;;;9.79;94.88;98849.16;5074588;28;20045;-87
2022/11/17 16:09:20;;;;;;;3.33;0.47;;;;;;;9.74;95.33;98839.06;5058332;28;20132;-88
2022/11/17 16:11:45;;;;;;;1.73;0.40;;;;;;;9.79;94.27;98846.44;5067245;28;20480;-88
2022/11/17 16:14:13;;;;;;;4.30;0.70;;;;;;;9.79;93.59;98849.94;5054241;28;20143;-88
2022/11/17 16:16:45;;;;;;;3.67;0.50;;;;;;;9.74;92.92;98844.47;5035890;28;20056;-88
2022/11/17 16:19:13;;;;;;;4.70;0.33;;;;;;;9.81;93.28;98855.09;5054388;28;20037;-88
2022/11/17 16:21:43;;;;;;;3.00;0.52;;;;;;;9.79;93.70;98852.66;5053635;28;20037;-88
2022/11/17 16:24:12;;;;;;;2.05;0.50;;;;;;;9.72;94.23;98852.06;5052919;28;20029;-87
2022/11/17 16:26:43;;;;;;;2.00;0.50;;;;;;;9.71;94.61;98846.91;5054499;28;20056;-87
2022/11/17 16:29:11;;;;;;;2.92;0.40;;;;;;;9.69;94.22;98847.16;5055924;28;20048;-88
2022/11/17 16:31:39;;;;;;;3.17;0.50;;;;;;;9.75;93.59;98862.38;5056180;28;20408;-88
2022/11/17 16:34:11;;;;;;;3.70;0.60;;;;;;;9.78;92.94;98869.16;5040018;28;20063;-89
2022/11/17 16:36:46;;;;;;;3.00;0.60;;;;;;;9.76;92.94;98863.22;5056237;28;20036;-87